createdAt,value
2023-04-15T00:01:13.374Z,11.68
2023-04-15T00:03:41.580Z,11.68
2023-04-15T00:06:10.064Z,11.59
2023-04-15T00:08:38.218Z,11.55
2023-04-15T00:11:07.749Z,11.53
2023-04-15T00:13:36.056Z,11.53
2023-04-15T00:16:04.216Z,11.51
2023-04-15T00:18:32.343Z,11.46
2023-04-15T00:21:00.617Z,11.51
2023-04-15T00:23:29.226Z,11.35
2023-04-15T00:25:57.361Z,11.26
2023-04-15T00:28:27.762Z,11.34
2023-04-15T00:30:55.834Z,11.32
2023-04-15T00:33:23.964Z,11.33
2023-04-15T00:35:52.242Z,11.29
2023-04-15T00:38:20.353Z,11.28
2023-04-15T00:40:48.570Z,11.21
2023-04-15T00:43:16.788Z,11.25
2023-04-15T00:45:47.258Z,11.29
2023-04-15T00:48:15.647Z,11.24
2023-04-15T00:50:43.821Z,11.29
2023-04-15T00:53:12.500Z,11.19
2023-04-15T00:55:41.303Z,11.14
2023-04-15T00:58:09.501Z,11.11
2023-04-15T01:00:38.564Z,11.13
2023-04-15T01:03:08.308Z,11.09
2023-04-15T01:05:38.058Z,11.06
2023-04-15T01:08:06.545Z,11.06
2023-04-15T01:10:35.390Z,11.03
2023-04-15T01:13:04.448Z,10.97
2023-04-15T01:15:33.723Z,10.78
2023-04-15T01:18:02.084Z,10.65
2023-04-15T01:20:32.293Z,10.56
2023-04-15T01:23:00.617Z,10.51
2023-04-15T01:25:33.469Z,10.50
2023-04-15T01:28:02.307Z,10.33
2023-04-15T01:30:31.051Z,10.23
2023-04-15T01:32:59.250Z,10.24
2023-04-15T01:35:27.769Z,10.39
2023-04-15T01:38:00.248Z,10.35
2023-04-15T01:40:28.309Z,10.35
2023-04-15T01:42:57.888Z,10.31
2023-04-15T01:45:25.986Z,10.22
2023-04-15T01:47:54.196Z,10.16
2023-04-15T01:50:22.796Z,10.13
2023-04-15T01:52:51.220Z,10.03
2023-04-15T01:55:19.476Z,9.96
2023-04-15T01:57:47.876Z,9.94
2023-04-15T02:00:17.810Z,9.94
2023-04-15T02:02:46.050Z,9.95
2023-04-15T02:05:14.785Z,9.88
2023-04-15T02:07:44.317Z,9.85
2023-04-15T02:10:13.620Z,9.84
2023-04-15T02:12:42.303Z,9.80
2023-04-15T02:15:11.372Z,9.78
2023-04-15T02:17:40.914Z,9.76
2023-04-15T02:20:10.874Z,9.80
2023-04-15T02:22:39.142Z,9.84
2023-04-15T02:25:08.546Z,9.78
2023-04-15T02:27:37.962Z,9.83
2023-04-15T02:30:07.359Z,9.90
2023-04-15T02:32:35.550Z,9.89
2023-04-15T02:35:09.423Z,9.87
2023-04-15T02:37:43.513Z,9.88
2023-04-15T02:40:13.280Z,9.85
2023-04-15T02:42:41.653Z,9.84
2023-04-15T02:45:10.606Z,9.82
2023-04-15T02:47:41.453Z,9.75
2023-04-15T02:50:13.807Z,9.85
2023-04-15T02:52:42.466Z,9.89
2023-04-15T02:55:11.275Z,9.88
2023-04-15T02:57:40.841Z,9.86
2023-04-15T03:00:11.662Z,9.90
2023-04-15T03:02:41.189Z,9.95
2023-04-15T03:05:13.937Z,9.88
2023-04-15T03:07:42.018Z,9.83
2023-04-15T03:10:11.170Z,9.73
2023-04-15T03:12:39.864Z,9.66
2023-04-15T03:15:09.793Z,9.56
2023-04-15T03:17:37.900Z,9.50
2023-04-15T03:20:07.460Z,9.44
2023-04-15T03:22:37.224Z,9.40
2023-04-15T03:25:05.956Z,9.38
2023-04-15T03:27:34.023Z,9.45
2023-04-15T03:30:02.101Z,9.45
2023-04-15T03:32:30.161Z,9.50
2023-04-15T03:34:58.281Z,9.70
2023-04-15T03:37:26.382Z,9.61
2023-04-15T03:39:55.911Z,9.57
2023-04-15T03:42:24.388Z,9.55
2023-04-15T03:44:52.509Z,9.56
2023-04-15T03:47:20.567Z,9.50
2023-04-15T03:49:48.855Z,9.45
2023-04-15T03:52:17.004Z,9.44
2023-04-15T03:54:45.060Z,9.35
2023-04-15T03:57:14.552Z,9.27
2023-04-15T03:59:42.746Z,9.20
2023-04-15T04:02:11.254Z,9.24
2023-04-15T04:04:39.383Z,9.18
2023-04-15T04:07:07.645Z,9.11
2023-04-15T04:09:36.359Z,9.17
2023-04-15T04:12:04.462Z,9.13
2023-04-15T04:14:34.943Z,9.12
2023-04-15T04:17:05.087Z,9.14
2023-04-15T04:19:33.461Z,9.07
2023-04-15T04:22:01.715Z,8.99
2023-04-15T04:24:29.938Z,8.94
2023-04-15T04:26:58.306Z,8.93
2023-04-15T04:29:27.117Z,8.92
2023-04-15T04:31:56.697Z,8.97
2023-04-15T04:34:24.872Z,8.94
2023-04-15T04:36:52.948Z,8.94
2023-04-15T04:39:21.139Z,8.84
2023-04-15T04:41:49.194Z,8.93
2023-04-15T04:44:17.559Z,9.10
2023-04-15T04:46:47.058Z,9.34
2023-04-15T04:49:16.845Z,9.36
2023-04-15T04:51:47.434Z,9.50
2023-04-15T04:54:16.212Z,9.60
2023-04-15T04:56:44.500Z,9.72
2023-04-15T04:59:13.343Z,9.80
2023-04-15T05:01:44.860Z,9.78
2023-04-15T05:04:13.125Z,10.02
2023-04-15T05:06:43.037Z,10.22
2023-04-15T05:09:11.214Z,10.31
2023-04-15T05:11:39.266Z,10.31
2023-04-15T05:14:07.700Z,10.53
2023-04-15T05:16:35.979Z,10.56
2023-04-15T05:19:04.157Z,10.67
2023-04-15T05:21:33.287Z,10.59
2023-04-15T05:24:03.221Z,10.69
2023-04-15T05:26:31.648Z,10.80
2023-04-15T05:29:00.174Z,10.82
2023-04-15T05:31:28.713Z,10.99
2023-04-15T05:33:57.293Z,11.02
2023-04-15T05:36:26.122Z,11.22
2023-04-15T05:38:54.568Z,11.21
2023-04-15T05:41:24.314Z,11.03
2023-04-15T05:43:52.451Z,10.90
2023-04-15T05:46:20.799Z,10.90
2023-04-15T05:48:48.815Z,10.79
2023-04-15T05:51:17.036Z,10.98
2023-04-15T05:53:46.125Z,11.04
2023-04-15T05:56:14.464Z,11.16
2023-04-15T05:58:44.107Z,11.18
2023-04-15T06:01:12.715Z,11.26
2023-04-15T06:03:41.127Z,11.30
2023-04-15T06:06:10.012Z,11.34
2023-04-15T06:08:38.510Z,11.39
2023-04-15T06:11:07.499Z,11.59
2023-04-15T06:13:36.166Z,11.68
2023-04-15T06:16:06.103Z,11.78
2023-04-15T06:18:34.310Z,11.82
2023-04-15T06:21:02.555Z,12.01
2023-04-15T06:23:31.139Z,12.10
2023-04-15T06:25:59.277Z,12.25
2023-04-15T06:28:27.347Z,12.39
2023-04-15T06:30:56.014Z,12.45
2023-04-15T06:33:25.540Z,12.47
2023-04-15T06:35:54.125Z,12.71
2023-04-15T06:38:22.295Z,12.71
2023-04-15T06:40:50.576Z,12.81
2023-04-15T06:43:18.778Z,12.82
2023-04-15T06:45:47.303Z,12.92
2023-04-15T06:48:15.668Z,13.05
2023-04-15T06:50:45.244Z,13.30
2023-04-15T06:53:13.437Z,13.34
2023-04-15T06:55:41.827Z,13.42
2023-04-15T06:58:10.007Z,13.45
2023-04-15T07:00:39.311Z,13.59
2023-04-15T07:03:10.284Z,13.68
2023-04-15T07:05:38.819Z,13.83
2023-04-15T07:08:08.573Z,13.92
2023-04-15T07:10:37.306Z,13.91
2023-04-15T07:13:08.906Z,13.86
2023-04-15T07:15:37.322Z,14.00
2023-04-15T07:18:05.575Z,14.30
2023-04-15T07:20:33.749Z,14.33
2023-04-15T07:23:01.893Z,14.35
2023-04-15T07:25:31.585Z,14.34
2023-04-15T07:27:59.838Z,14.58
2023-04-15T07:30:28.026Z,14.61
2023-04-15T07:32:57.228Z,14.65
2023-04-15T07:35:26.697Z,14.64
2023-04-15T07:37:54.852Z,14.73
2023-04-15T07:40:23.885Z,14.78
2023-04-15T07:42:53.403Z,15.07
2023-04-15T07:45:21.773Z,14.97
2023-04-15T07:47:50.987Z,14.93
2023-04-15T07:50:19.854Z,14.98
2023-04-15T07:52:49.071Z,15.02
2023-04-15T07:55:20.153Z,15.13
2023-04-15T07:57:48.625Z,15.30
2023-04-15T08:00:18.437Z,15.45
2023-04-15T08:02:48.836Z,15.51
2023-04-15T08:05:17.229Z,15.63
2023-04-15T08:07:45.734Z,15.58
2023-04-15T08:10:13.764Z,15.56
2023-04-15T08:12:41.894Z,15.68
2023-04-15T08:15:11.259Z,15.78
2023-04-15T08:17:40.756Z,15.97
2023-04-15T08:20:09.836Z,15.95
2023-04-15T08:22:38.254Z,16.14
2023-04-15T08:25:06.933Z,16.15
2023-04-15T08:27:35.076Z,16.14
2023-04-15T08:30:05.070Z,16.08
2023-04-15T08:32:33.397Z,16.18
2023-04-15T08:35:03.099Z,16.25
2023-04-15T08:37:31.349Z,16.32
2023-04-15T08:39:59.769Z,16.40
2023-04-15T08:42:32.650Z,16.61
2023-04-15T08:45:02.426Z,16.66
2023-04-15T08:47:33.036Z,16.44
2023-04-15T08:50:05.915Z,16.60
2023-04-15T08:52:34.816Z,16.86
2023-04-15T08:55:05.114Z,16.99
2023-04-15T08:57:34.425Z,16.87
2023-04-15T09:00:05.900Z,16.97
2023-04-15T09:02:34.704Z,17.01
2023-04-15T09:05:07.762Z,17.13
2023-04-15T09:07:36.770Z,17.38
2023-04-15T09:10:06.051Z,17.39
2023-04-15T09:12:36.339Z,17.59
2023-04-15T09:15:05.359Z,17.70
2023-04-15T09:17:35.365Z,17.88
2023-04-15T09:20:13.118Z,17.68
2023-04-15T09:22:42.560Z,17.60
2023-04-15T09:25:29.333Z,17.54
2023-04-15T09:27:59.517Z,17.72
2023-04-15T09:30:29.656Z,17.66
2023-04-15T09:32:59.744Z,18.00
2023-04-15T09:35:30.437Z,18.28
2023-04-15T09:38:05.379Z,18.33
2023-04-15T09:40:34.409Z,18.73
2023-04-15T09:43:03.275Z,18.68
2023-04-15T09:45:31.942Z,18.77
2023-04-15T09:48:00.497Z,18.97
2023-04-15T09:50:30.887Z,18.82
2023-04-15T09:52:59.860Z,18.80
2023-04-15T09:55:27.960Z,18.90
2023-04-15T09:57:56.326Z,19.15
2023-04-15T10:00:24.482Z,19.17
2023-04-15T10:02:54.084Z,18.99
2023-04-15T10:05:23.655Z,19.12
2023-04-15T10:07:53.406Z,19.10
2023-04-15T10:10:25.243Z,19.38
2023-04-15T10:12:55.831Z,19.69
2023-04-15T10:15:25.351Z,20.06
2023-04-15T10:17:56.139Z,20.09
2023-04-15T10:20:25.274Z,19.78
2023-04-15T10:22:55.736Z,19.50
2023-04-15T10:25:25.006Z,19.45
2023-04-15T10:27:53.523Z,19.42
2023-04-15T10:30:22.451Z,19.30
2023-04-15T10:32:51.510Z,19.43
2023-04-15T10:35:20.715Z,19.39
2023-04-15T10:37:50.162Z,19.48
2023-04-15T10:40:31.776Z,19.26
2023-04-15T10:43:01.715Z,19.31
2023-04-15T10:45:34.480Z,19.46
2023-04-15T10:48:04.979Z,19.43
2023-04-15T10:50:37.101Z,19.64
2023-04-15T10:53:06.765Z,19.80
2023-04-15T10:55:37.209Z,19.36
2023-04-15T10:58:08.208Z,19.55
2023-04-15T11:00:40.020Z,19.51
2023-04-15T11:03:10.920Z,19.60
2023-04-15T11:05:52.755Z,19.94
2023-04-15T11:08:21.615Z,20.22
2023-04-15T11:10:55.170Z,19.82
2023-04-15T11:13:32.748Z,19.76
2023-04-15T11:16:02.857Z,20.07
2023-04-15T11:18:33.407Z,20.32
2023-04-15T11:21:04.795Z,20.04
2023-04-15T11:23:35.893Z,19.42
2023-04-15T11:26:09.766Z,19.47
2023-04-15T11:28:39.206Z,19.79
2023-04-15T11:31:10.912Z,20.18
2023-04-15T11:33:40.348Z,19.80
2023-04-15T11:36:12.234Z,19.82
2023-04-15T11:38:44.142Z,19.67
2023-04-15T11:41:13.772Z,19.49
2023-04-15T11:43:42.113Z,19.26
2023-04-15T11:46:10.325Z,19.55
2023-04-15T11:48:38.546Z,19.74
2023-04-15T11:51:08.429Z,19.70
2023-04-15T11:53:41.617Z,19.72
2023-04-15T11:56:11.718Z,19.96
2023-04-15T11:58:42.601Z,20.22
2023-04-15T12:01:10.778Z,20.15
2023-04-15T12:03:41.197Z,20.02
2023-04-15T12:06:19.411Z,20.03
2023-04-15T12:09:02.751Z,19.69
2023-04-15T12:11:43.033Z,19.73
2023-04-15T12:14:15.095Z,19.58
2023-04-15T12:16:47.837Z,19.44
2023-04-15T12:19:25.523Z,19.27
2023-04-15T12:21:56.664Z,19.32
2023-04-15T12:24:26.775Z,19.54
2023-04-15T12:26:57.332Z,19.79
2023-04-15T12:29:29.354Z,19.98
2023-04-15T12:31:59.972Z,19.94
2023-04-15T12:34:29.886Z,19.81
2023-04-15T12:36:59.315Z,19.80
2023-04-15T12:39:30.505Z,19.90
2023-04-15T12:41:59.476Z,19.90
2023-04-15T12:44:29.709Z,19.84
2023-04-15T12:46:58.250Z,19.83
2023-04-15T12:49:27.007Z,20.01
2023-04-15T12:51:56.734Z,19.89
2023-04-15T12:54:25.124Z,20.06
2023-04-15T12:56:54.349Z,20.37
2023-04-15T12:59:23.849Z,20.48
2023-04-15T13:01:54.701Z,20.44
2023-04-15T13:04:23.209Z,20.19
2023-04-15T13:06:51.617Z,20.25
2023-04-15T13:09:19.952Z,20.28
2023-04-15T13:11:48.125Z,19.78
2023-04-15T13:14:18.298Z,19.85
2023-04-15T13:16:46.523Z,19.99
2023-04-15T13:19:16.105Z,19.95
2023-04-15T13:21:44.247Z,20.01
2023-04-15T13:24:12.920Z,20.10
2023-04-15T13:26:41.110Z,20.44
2023-04-15T13:29:09.282Z,20.58
2023-04-15T13:31:37.573Z,20.59
2023-04-15T13:34:06.152Z,20.48
2023-04-15T13:36:36.084Z,20.19
2023-04-15T13:39:05.612Z,20.24
2023-04-15T13:41:33.930Z,20.61
2023-04-15T13:44:02.212Z,20.91
2023-04-15T13:46:30.734Z,20.81
2023-04-15T13:48:58.881Z,20.86
2023-04-15T13:51:27.156Z,20.70
2023-04-15T13:53:58.311Z,20.69
2023-04-15T13:56:26.742Z,20.55
2023-04-15T13:58:54.962Z,20.38
2023-04-15T14:01:23.153Z,20.16
2023-04-15T14:03:51.398Z,20.29
2023-04-15T14:06:19.783Z,20.22
2023-04-15T14:08:48.040Z,20.07
2023-04-15T14:11:17.696Z,20.36
2023-04-15T14:13:47.262Z,20.01
2023-04-15T14:16:15.707Z,19.98
2023-04-15T14:18:46.274Z,20.03
2023-04-15T14:21:14.649Z,20.03
2023-04-15T14:23:43.255Z,19.86
2023-04-15T14:26:11.741Z,19.81
2023-04-15T14:28:45.144Z,19.70
2023-04-15T14:31:14.290Z,19.60
2023-04-15T14:33:42.949Z,19.46
2023-04-15T14:36:11.574Z,19.36
2023-04-15T14:38:40.382Z,19.33
2023-04-15T14:41:10.206Z,19.34
2023-04-15T14:43:40.678Z,19.29
2023-04-15T14:46:09.296Z,19.31
2023-04-15T14:48:37.861Z,19.33
2023-04-15T14:51:06.493Z,19.39
2023-04-15T14:53:34.893Z,19.42
2023-04-15T14:56:03.536Z,19.31
2023-04-15T14:58:33.725Z,19.57
2023-04-15T15:01:04.518Z,19.85
2023-04-15T15:03:33.033Z,19.87
2023-04-15T15:06:01.310Z,19.95
2023-04-15T15:08:29.971Z,19.74
2023-04-15T15:10:58.083Z,19.83
2023-04-15T15:13:26.637Z,20.00
2023-04-15T15:15:54.757Z,19.81
2023-04-15T15:18:25.673Z,19.69
2023-04-15T15:20:53.876Z,19.75
2023-04-15T15:23:22.109Z,19.79
2023-04-15T15:25:50.420Z,19.89
2023-04-15T15:28:18.522Z,20.04
2023-04-15T15:30:46.647Z,20.21
2023-04-15T15:33:14.959Z,20.14
2023-04-15T15:35:45.521Z,20.30
2023-04-15T15:38:13.996Z,20.21
2023-04-15T15:40:42.087Z,20.29
2023-04-15T15:43:10.222Z,20.21
2023-04-15T15:45:38.264Z,20.22
2023-04-15T15:48:07.543Z,20.16
2023-04-15T15:50:36.079Z,20.10
2023-04-15T15:53:05.601Z,20.11
2023-04-15T15:55:33.985Z,20.00
2023-04-15T15:58:02.078Z,19.94
2023-04-15T16:00:30.340Z,19.97
2023-04-15T16:05:29.624Z,20.04
2023-04-15T16:07:57.703Z,19.95
2023-04-15T16:10:27.407Z,19.75
2023-04-15T16:12:55.890Z,19.64
2023-04-15T16:15:24.210Z,19.65
2023-04-15T16:17:52.321Z,19.64
2023-04-15T16:20:20.483Z,19.66
2023-04-15T16:22:48.822Z,19.57
2023-04-15T16:25:17.047Z,19.59
2023-04-15T16:28:00.786Z,19.58
2023-04-15T16:30:31.851Z,19.51
2023-04-15T16:33:00.104Z,19.43
2023-04-15T16:35:28.545Z,19.37
2023-04-15T16:37:56.751Z,19.35
2023-04-15T16:40:25.137Z,19.25
2023-04-15T16:42:54.857Z,19.18
2023-04-15T16:45:23.020Z,19.12
2023-04-15T16:47:51.473Z,19.01
2023-04-15T16:50:19.796Z,18.92
2023-04-15T16:53:05.200Z,18.84
2023-04-15T16:55:33.359Z,18.81
2023-04-15T16:58:04.606Z,18.76
2023-04-15T17:00:36.205Z,18.62
2023-04-15T17:03:05.153Z,18.55
2023-04-15T17:05:33.525Z,18.48
2023-04-15T17:08:01.871Z,18.42
2023-04-15T17:10:30.128Z,18.38
2023-04-15T17:12:58.844Z,18.31
2023-04-15T17:15:28.899Z,18.21
2023-04-15T17:17:57.066Z,18.16
2023-04-15T17:20:28.287Z,18.04
2023-04-15T17:22:56.544Z,17.95
2023-04-15T17:25:25.300Z,17.87
2023-04-15T17:27:53.535Z,17.80
2023-04-15T17:30:21.952Z,17.73
2023-04-15T17:32:52.903Z,17.63
2023-04-15T17:35:21.451Z,17.52
2023-04-15T17:37:49.843Z,17.44
2023-04-15T17:40:18.211Z,17.38
2023-04-15T17:42:46.362Z,17.30
2023-04-15T17:45:16.090Z,17.26
2023-04-15T17:47:44.542Z,17.20
2023-04-15T17:50:14.868Z,17.13
2023-04-15T17:52:43.128Z,17.06
2023-04-15T17:55:11.602Z,17.00
2023-04-15T17:57:40.882Z,16.93
2023-04-15T18:00:12.739Z,16.89
2023-04-15T18:02:41.868Z,16.86
2023-04-15T18:05:10.838Z,16.80
2023-04-15T18:07:40.668Z,16.76
2023-04-15T18:10:10.310Z,16.69
2023-04-15T18:12:38.964Z,16.64
2023-04-15T18:15:09.756Z,16.58
2023-04-15T18:17:38.175Z,16.54
2023-04-15T18:20:07.289Z,16.46
2023-04-15T18:22:35.508Z,16.42
2023-04-15T18:25:05.711Z,16.39
2023-04-15T18:27:35.652Z,16.42
2023-04-15T18:30:03.849Z,16.33
2023-04-15T18:32:33.010Z,16.27
2023-04-15T18:35:01.364Z,16.19
2023-04-15T18:37:30.101Z,16.15
2023-04-15T18:39:58.581Z,16.10
2023-04-15T18:42:28.250Z,15.98
2023-04-15T18:44:56.537Z,15.92
2023-04-15T18:47:27.140Z,15.86
2023-04-15T18:49:55.475Z,15.94
2023-04-15T18:52:23.594Z,15.86
2023-04-15T18:54:51.715Z,15.77
2023-04-15T18:57:20.452Z,15.77
2023-04-15T18:59:54.066Z,15.72
2023-04-15T19:02:22.303Z,15.60
2023-04-15T19:04:50.516Z,15.53
2023-04-15T19:07:18.680Z,15.54
2023-04-15T19:09:46.793Z,15.53
2023-04-15T19:12:14.913Z,15.52
2023-04-15T19:14:44.062Z,15.41
2023-04-15T19:17:13.658Z,15.45
2023-04-15T19:19:41.719Z,15.43
2023-04-15T19:22:11.710Z,15.31
2023-04-15T19:24:40.173Z,15.29
2023-04-15T19:27:09.026Z,15.14
2023-04-15T19:29:37.276Z,15.01
2023-04-15T19:32:05.858Z,14.89
2023-04-15T19:34:35.495Z,14.84
2023-04-15T19:37:03.877Z,14.82
2023-04-15T19:39:31.959Z,14.77
2023-04-15T19:42:00.464Z,14.75
2023-04-15T19:44:29.417Z,14.57
2023-04-15T19:46:58.478Z,14.50
2023-04-15T19:49:27.069Z,14.47
2023-04-15T19:51:56.894Z,14.41
2023-04-15T19:54:25.337Z,14.35
2023-04-15T19:56:53.750Z,14.12
2023-04-15T19:59:22.044Z,14.07
2023-04-15T20:01:50.574Z,13.94
2023-04-15T20:04:19.256Z,13.65
2023-04-15T20:06:47.732Z,13.64
2023-04-15T20:09:17.765Z,13.37
2023-04-15T20:12:09.622Z,13.29
2023-04-15T20:14:34.224Z,13.13
2023-04-15T20:17:04.248Z,12.92
2023-04-15T20:19:32.341Z,12.77
2023-04-15T20:22:00.511Z,12.78
2023-04-15T20:24:30.018Z,12.71
2023-04-15T20:26:58.373Z,12.65
2023-04-15T20:29:26.584Z,12.64
2023-04-15T20:31:54.710Z,12.76
2023-04-15T20:34:23.430Z,12.80
2023-04-15T20:36:51.778Z,12.66
2023-04-15T20:39:19.943Z,12.57
2023-04-15T20:41:50.747Z,12.55
2023-04-15T20:44:18.844Z,12.61
2023-04-15T20:46:46.879Z,12.55
2023-04-15T20:49:15.116Z,12.56
2023-04-15T20:51:43.257Z,12.55
2023-04-15T20:54:12.264Z,12.48
2023-04-15T20:56:40.357Z,12.38
2023-04-15T20:59:09.878Z,12.35
2023-04-15T21:01:38.079Z,12.35
2023-04-15T21:04:09.470Z,12.25
2023-04-15T21:06:37.853Z,12.31
2023-04-15T21:09:07.226Z,12.23
2023-04-15T21:14:09.340Z,12.20
2023-04-15T21:16:37.489Z,12.21
2023-04-15T21:19:05.784Z,12.22
2023-04-15T21:21:34.093Z,12.23
2023-04-15T21:24:03.326Z,12.24
2023-04-15T21:26:31.686Z,12.10
2023-04-15T21:28:59.827Z,12.14
2023-04-15T21:31:29.385Z,12.11
2023-04-15T21:33:57.503Z,12.03
2023-04-15T21:36:25.907Z,11.97
2023-04-15T21:38:53.991Z,12.10
2023-04-15T21:41:22.016Z,12.08
2023-04-15T21:43:50.364Z,12.16
2023-04-15T21:46:22.418Z,12.12
2023-04-15T21:48:57.187Z,12.10
2023-04-15T21:51:25.854Z,12.10
2023-04-15T21:53:53.916Z,12.08
2023-04-15T21:56:24.348Z,12.04
2023-04-15T21:58:57.988Z,11.94
2023-04-15T22:01:26.338Z,11.93
2023-04-15T22:03:56.235Z,11.87
2023-04-15T22:06:24.657Z,11.80
2023-04-15T22:08:57.560Z,11.78
2023-04-15T22:11:28.397Z,11.74
2023-04-15T22:13:58.108Z,11.70
2023-04-15T22:16:27.299Z,11.69
2023-04-15T22:18:57.076Z,11.69
2023-04-15T22:21:25.618Z,11.68
2023-04-15T22:24:34.881Z,11.64
2023-04-15T22:26:43.168Z,11.59
2023-04-15T22:29:11.955Z,11.54
2023-04-15T22:31:39.999Z,11.48
2023-04-15T22:34:09.698Z,11.45
2023-04-15T22:36:37.870Z,11.48
2023-04-15T22:39:06.481Z,11.47
2023-04-15T22:41:34.764Z,11.50
2023-04-15T22:44:02.880Z,11.46
2023-04-15T22:46:30.969Z,11.42
2023-04-15T22:49:01.397Z,11.41
2023-04-15T22:51:31.578Z,11.42
2023-04-15T22:53:59.758Z,11.39
2023-04-15T22:56:27.923Z,11.36
2023-04-15T22:58:56.066Z,11.33
2023-04-15T23:01:24.241Z,11.32
2023-04-15T23:03:56.096Z,11.31
2023-04-15T23:06:25.766Z,11.33
2023-04-15T23:08:55.929Z,11.47
2023-04-15T23:11:24.230Z,11.44
2023-04-15T23:13:53.144Z,11.38
2023-04-15T23:16:21.236Z,11.36
2023-04-15T23:18:49.448Z,11.36
2023-04-15T23:21:18.027Z,11.40
2023-04-15T23:23:46.208Z,11.41
2023-04-15T23:26:15.805Z,11.48
2023-04-15T23:28:43.963Z,11.42
2023-04-15T23:31:12.587Z,11.44
2023-04-15T23:33:40.623Z,11.47
2023-04-15T23:36:09.831Z,11.41
2023-04-15T23:38:37.935Z,11.37
2023-04-15T23:41:06.278Z,11.36
2023-04-15T23:43:35.775Z,11.36
2023-04-15T23:46:03.924Z,11.36
2023-04-15T23:48:32.745Z,11.32
2023-04-15T23:51:01.705Z,11.31
2023-04-15T23:53:30.299Z,11.29
2023-04-15T23:55:58.382Z,11.32
2023-04-15T23:58:26.647Z,11.28
